sensor_id;sensor_type;location;lat;lon;timestamp;P1;durP1;ratioP1;P2;durP2;ratioP2
51971;SDS011;37991;49.662;10.060;2022-08-21T00:01:59;5.72;;;3.40;;
51971;SDS011;37991;49.662;10.060;2022-08-21T00:04:24;5.78;;;3.40;;
51971;SDS011;37991;49.662;10.060;2022-08-21T00:06:50;4.97;;;3.40;;
51971;SDS011;37991;49.662;10.060;2022-08-21T00:09:16;4.88;;;3.30;;
51971;SDS011;37991;49.662;10.060;2022-08-21T00:11:42;4.97;;;3.45;;
51971;SDS011;37991;49.662;10.060;2022-08-21T00:14:08;5.85;;;3.40;;
51971;SDS011;37991;49.662;10.060;2022-08-21T00:16:35;5.45;;;3.40;;
51971;SDS011;37991;49.662;10.060;2022-08-21T00:19:00;6.63;;;3.55;;
51971;SDS011;37991;49.662;10.060;2022-08-21T00:21:25;6.80;;;3.40;;
51971;SDS011;37991;49.662;10.060;2022-08-21T00:23:51;4.22;;;3.17;;
51971;SDS011;37991;49.662;10.060;2022-08-21T00:26:16;4.80;;;3.20;;
51971;SDS011;37991;49.662;10.060;2022-08-21T00:28:42;4.97;;;3.35;;
51971;SDS011;37991;49.662;10.060;2022-08-21T00:31:07;6.75;;;3.53;;
51971;SDS011;37991;49.662;10.060;2022-08-21T00:33:33;5.88;;;3.58;;
51971;SDS011;37991;49.662;10.060;2022-08-21T00:35:59;8.70;;;3.55;;
51971;SDS011;37991;49.662;10.060;2022-08-21T00:38:24;6.32;;;3.72;;
51971;SDS011;37991;49.662;10.060;2022-08-21T00:40:52;5.72;;;3.40;;
51971;SDS011;37991;49.662;10.060;2022-08-21T00:43:21;5.93;;;3.42;;
51971;SDS011;37991;49.662;10.060;2022-08-21T00:45:50;5.25;;;3.42;;
51971;SDS011;37991;49.662;10.060;2022-08-21T00:48:16;6.85;;;3.55;;
51971;SDS011;37991;49.662;10.060;2022-08-21T00:50:44;9.63;;;3.13;;
51971;SDS011;37991;49.662;10.060;2022-08-21T00:53:15;5.57;;;3.25;;
51971;SDS011;37991;49.662;10.060;2022-08-21T00:55:41;7.68;;;3.50;;
51971;SDS011;37991;49.662;10.060;2022-08-21T00:58:08;8.23;;;3.42;;
51971;SDS011;37991;49.662;10.060;2022-08-21T01:00:36;6.07;;;3.60;;
51971;SDS011;37991;49.662;10.060;2022-08-21T01:03:09;6.70;;;4.28;;
51971;SDS011;37991;49.662;10.060;2022-08-21T01:05:37;6.45;;;4.18;;
51971;SDS011;37991;49.662;10.060;2022-08-21T01:08:03;5.97;;;3.53;;
51971;SDS011;37991;49.662;10.060;2022-08-21T01:10:29;5.68;;;3.55;;
51971;SDS011;37991;49.662;10.060;2022-08-21T01:12:55;7.90;;;3.35;;
51971;SDS011;37991;49.662;10.060;2022-08-21T01:15:23;7.35;;;4.03;;
51971;SDS011;37991;49.662;10.060;2022-08-21T01:17:52;5.80;;;3.40;;
51971;SDS011;37991;49.662;10.060;2022-08-21T01:20:18;7.65;;;3.80;;
51971;SDS011;37991;49.662;10.060;2022-08-21T01:22:44;6.40;;;3.53;;
51971;SDS011;37991;49.662;10.060;2022-08-21T01:25:10;7.18;;;3.53;;
51971;SDS011;37991;49.662;10.060;2022-08-21T01:27:40;9.35;;;3.67;;
51971;SDS011;37991;49.662;10.060;2022-08-21T01:30:13;4.75;;;2.95;;
51971;SDS011;37991;49.662;10.060;2022-08-21T01:32:43;8.15;;;3.75;;
51971;SDS011;37991;49.662;10.060;2022-08-21T01:35:11;7.50;;;4.15;;
51971;SDS011;37991;49.662;10.060;2022-08-21T01:37:39;5.60;;;3.55;;
51971;SDS011;37991;49.662;10.060;2022-08-21T01:40:05;5.57;;;3.47;;
51971;SDS011;37991;49.662;10.060;2022-08-21T01:42:31;4.55;;;3.33;;
51971;SDS011;37991;49.662;10.060;2022-08-21T01:44:57;5.00;;;2.90;;
51971;SDS011;37991;49.662;10.060;2022-08-21T01:47:23;5.85;;;3.30;;
51971;SDS011;37991;49.662;10.060;2022-08-21T01:49:48;4.57;;;2.92;;
51971;SDS011;37991;49.662;10.060;2022-08-21T01:52:13;5.43;;;3.42;;
51971;SDS011;37991;49.662;10.060;2022-08-21T01:54:39;4.88;;;3.03;;
51971;SDS011;37991;49.662;10.060;2022-08-21T01:57:05;4.53;;;3.13;;
51971;SDS011;37991;49.662;10.060;2022-08-21T01:59:31;4.63;;;3.30;;
51971;SDS011;37991;49.662;10.060;2022-08-21T02:01:56;5.35;;;3.17;;
51971;SDS011;37991;49.662;10.060;2022-08-21T02:04:22;4.10;;;3.08;;
51971;SDS011;37991;49.662;10.060;2022-08-21T02:06:48;7.72;;;3.08;;
51971;SDS011;37991;49.662;10.060;2022-08-21T02:09:14;6.95;;;3.05;;
51971;SDS011;37991;49.662;10.060;2022-08-21T02:11:41;5.82;;;3.00;;
51971;SDS011;37991;49.662;10.060;2022-08-21T02:14:08;6.40;;;3.20;;
51971;SDS011;37991;49.662;10.060;2022-08-21T02:16:39;4.45;;;2.90;;
51971;SDS011;37991;49.662;10.060;2022-08-21T02:19:06;5.60;;;3.22;;
51971;SDS011;37991;49.662;10.060;2022-08-21T02:21:32;4.65;;;3.03;;
51971;SDS011;37991;49.662;10.060;2022-08-21T02:23:58;3.25;;;2.50;;
51971;SDS011;37991;49.662;10.060;2022-08-21T02:26:24;5.03;;;3.20;;
51971;SDS011;37991;49.662;10.060;2022-08-21T02:28:50;3.78;;;2.90;;
51971;SDS011;37991;49.662;10.060;2022-08-21T02:31:16;7.25;;;3.72;;
51971;SDS011;37991;49.662;10.060;2022-08-21T02:33:41;5.60;;;3.25;;
51971;SDS011;37991;49.662;10.060;2022-08-21T02:36:07;4.25;;;3.22;;
51971;SDS011;37991;49.662;10.060;2022-08-21T02:38:34;4.68;;;2.75;;
51971;SDS011;37991;49.662;10.060;2022-08-21T02:41:08;4.63;;;3.33;;
51971;SDS011;37991;49.662;10.060;2022-08-21T02:43:36;4.50;;;2.90;;
51971;SDS011;37991;49.662;10.060;2022-08-21T02:46:02;5.55;;;3.20;;
51971;SDS011;37991;49.662;10.060;2022-08-21T02:48:31;5.40;;;3.13;;
51971;SDS011;37991;49.662;10.060;2022-08-21T02:50:58;5.13;;;3.60;;
51971;SDS011;37991;49.662;10.060;2022-08-21T02:53:31;5.18;;;3.65;;
51971;SDS011;37991;49.662;10.060;2022-08-21T02:55:58;5.72;;;3.30;;
51971;SDS011;37991;49.662;10.060;2022-08-21T02:58:27;6.88;;;3.33;;
51971;SDS011;37991;49.662;10.060;2022-08-21T03:01:00;5.07;;;3.20;;
51971;SDS011;37991;49.662;10.060;2022-08-21T03:03:26;6.95;;;3.05;;
51971;SDS011;37991;49.662;10.060;2022-08-21T03:05:52;6.38;;;3.60;;
51971;SDS011;37991;49.662;10.060;2022-08-21T03:08:18;4.80;;;3.17;;
51971;SDS011;37991;49.662;10.060;2022-08-21T03:10:46;5.85;;;3.55;;
51971;SDS011;37991;49.662;10.060;2022-08-21T03:13:13;6.15;;;3.60;;
51971;SDS011;37991;49.662;10.060;2022-08-21T03:15:40;4.03;;;2.80;;
51971;SDS011;37991;49.662;10.060;2022-08-21T03:18:05;5.72;;;3.78;;
51971;SDS011;37991;49.662;10.060;2022-08-21T03:20:32;6.38;;;3.55;;
51971;SDS011;37991;49.662;10.060;2022-08-21T03:22:58;4.47;;;3.17;;
51971;SDS011;37991;49.662;10.060;2022-08-21T03:25:25;5.28;;;3.28;;
51971;SDS011;37991;49.662;10.060;2022-08-21T03:27:51;6.35;;;3.90;;
51971;SDS011;37991;49.662;10.060;2022-08-21T03:30:18;6.35;;;3.58;;
51971;SDS011;37991;49.662;10.060;2022-08-21T03:32:45;7.80;;;3.60;;
51971;SDS011;37991;49.662;10.060;2022-08-21T03:35:11;7.03;;;4.00;;
51971;SDS011;37991;49.662;10.060;2022-08-21T03:37:38;6.93;;;4.03;;
51971;SDS011;37991;49.662;10.060;2022-08-21T03:40:04;6.85;;;4.25;;
51971;SDS011;37991;49.662;10.060;2022-08-21T03:42:31;6.88;;;3.80;;
51971;SDS011;37991;49.662;10.060;2022-08-21T03:44:56;6.13;;;3.75;;
51971;SDS011;37991;49.662;10.060;2022-08-21T03:47:22;5.68;;;3.75;;
51971;SDS011;37991;49.662;10.060;2022-08-21T03:49:47;5.88;;;3.97;;
51971;SDS011;37991;49.662;10.060;2022-08-21T03:52:13;6.35;;;3.72;;
51971;SDS011;37991;49.662;10.060;2022-08-21T03:54:38;6.68;;;4.05;;
51971;SDS011;37991;49.662;10.060;2022-08-21T03:57:06;7.45;;;4.20;;
51971;SDS011;37991;49.662;10.060;2022-08-21T03:59:31;6.15;;;3.55;;
51971;SDS011;37991;49.662;10.060;2022-08-21T04:01:58;7.65;;;4.40;;
51971;SDS011;37991;49.662;10.060;2022-08-21T04:04:25;6.13;;;4.10;;
51971;SDS011;37991;49.662;10.060;2022-08-21T04:06:52;9.82;;;4.70;;
51971;SDS011;37991;49.662;10.060;2022-08-21T04:09:18;9.18;;;4.57;;
51971;SDS011;37991;49.662;10.060;2022-08-21T04:11:44;7.05;;;3.88;;
51971;SDS011;37991;49.662;10.060;2022-08-21T04:14:11;7.93;;;4.10;;
51971;SDS011;37991;49.662;10.060;2022-08-21T04:16:36;6.72;;;4.07;;
51971;SDS011;37991;49.662;10.060;2022-08-21T04:19:02;6.57;;;3.95;;
51971;SDS011;37991;49.662;10.060;2022-08-21T04:21:27;7.47;;;3.95;;
51971;SDS011;37991;49.662;10.060;2022-08-21T04:23:56;6.35;;;4.15;;
51971;SDS011;37991;49.662;10.060;2022-08-21T04:26:22;6.32;;;4.03;;
51971;SDS011;37991;49.662;10.060;2022-08-21T04:28:47;5.93;;;3.75;;
51971;SDS011;37991;49.662;10.060;2022-08-21T04:31:13;6.50;;;3.90;;
51971;SDS011;37991;49.662;10.060;2022-08-21T04:33:38;6.65;;;4.05;;
51971;SDS011;37991;49.662;10.060;2022-08-21T04:36:04;8.77;;;4.35;;
51971;SDS011;37991;49.662;10.060;2022-08-21T04:38:30;6.93;;;4.40;;
51971;SDS011;37991;49.662;10.060;2022-08-21T04:40:56;7.70;;;4.30;;
51971;SDS011;37991;49.662;10.060;2022-08-21T04:43:22;7.60;;;4.00;;
51971;SDS011;37991;49.662;10.060;2022-08-21T04:45:48;6.22;;;3.88;;
51971;SDS011;37991;49.662;10.060;2022-08-21T04:48:16;9.48;;;4.22;;
51971;SDS011;37991;49.662;10.060;2022-08-21T04:50:49;8.15;;;4.28;;
51971;SDS011;37991;49.662;10.060;2022-08-21T04:53:20;7.63;;;3.95;;
51971;SDS011;37991;49.662;10.060;2022-08-21T04:55:49;7.40;;;4.40;;
51971;SDS011;37991;49.662;10.060;2022-08-21T04:58:17;7.45;;;3.97;;
51971;SDS011;37991;49.662;10.060;2022-08-21T05:00:45;8.82;;;4.63;;
51971;SDS011;37991;49.662;10.060;2022-08-21T05:03:12;9.00;;;4.88;;
51971;SDS011;37991;49.662;10.060;2022-08-21T05:05:41;7.40;;;4.38;;
51971;SDS011;37991;49.662;10.060;2022-08-21T05:08:08;10.18;;;5.35;;
51971;SDS011;37991;49.662;10.060;2022-08-21T05:10:37;9.73;;;5.00;;
51971;SDS011;37991;49.662;10.060;2022-08-21T05:13:02;8.88;;;5.07;;
51971;SDS011;37991;49.662;10.060;2022-08-21T05:15:29;8.57;;;4.63;;
51971;SDS011;37991;49.662;10.060;2022-08-21T05:17:55;6.80;;;4.60;;
51971;SDS011;37991;49.662;10.060;2022-08-21T05:20:21;8.07;;;4.38;;
51971;SDS011;37991;49.662;10.060;2022-08-21T05:22:46;8.02;;;4.80;;
51971;SDS011;37991;49.662;10.060;2022-08-21T05:25:11;6.13;;;4.15;;
51971;SDS011;37991;49.662;10.060;2022-08-21T05:27:37;9.32;;;4.63;;
51971;SDS011;37991;49.662;10.060;2022-08-21T05:30:03;8.27;;;4.40;;
51971;SDS011;37991;49.662;10.060;2022-08-21T05:32:30;8.80;;;5.40;;
51971;SDS011;37991;49.662;10.060;2022-08-21T05:34:55;7.35;;;4.63;;
51971;SDS011;37991;49.662;10.060;2022-08-21T05:37:21;9.68;;;4.82;;
51971;SDS011;37991;49.662;10.060;2022-08-21T05:39:46;9.52;;;5.43;;
51971;SDS011;37991;49.662;10.060;2022-08-21T05:42:12;12.00;;;5.70;;
51971;SDS011;37991;49.662;10.060;2022-08-21T05:44:37;11.15;;;6.00;;
51971;SDS011;37991;49.662;10.060;2022-08-21T05:47:03;11.15;;;5.72;;
51971;SDS011;37991;49.662;10.060;2022-08-21T05:49:30;10.52;;;5.53;;
51971;SDS011;37991;49.662;10.060;2022-08-21T05:51:55;11.02;;;5.90;;
51971;SDS011;37991;49.662;10.060;2022-08-21T05:54:20;9.18;;;5.70;;
51971;SDS011;37991;49.662;10.060;2022-08-21T05:56:46;11.50;;;5.88;;
51971;SDS011;37991;49.662;10.060;2022-08-21T05:59:11;13.63;;;6.38;;
51971;SDS011;37991;49.662;10.060;2022-08-21T06:01:38;13.00;;;5.57;;
51971;SDS011;37991;49.662;10.060;2022-08-21T06:04:03;11.52;;;6.70;;
51971;SDS011;37991;49.662;10.060;2022-08-21T06:06:29;14.40;;;7.10;;
51971;SDS011;37991;49.662;10.060;2022-08-21T06:08:55;12.73;;;6.45;;
51971;SDS011;37991;49.662;10.060;2022-08-21T06:11:20;11.93;;;6.32;;
51971;SDS011;37991;49.662;10.060;2022-08-21T06:13:45;10.20;;;6.13;;
51971;SDS011;37991;49.662;10.060;2022-08-21T06:16:12;11.23;;;6.43;;
51971;SDS011;37991;49.662;10.060;2022-08-21T06:18:38;11.13;;;5.53;;
51971;SDS011;37991;49.662;10.060;2022-08-21T06:21:04;9.38;;;5.53;;
51971;SDS011;37991;49.662;10.060;2022-08-21T06:23:31;10.02;;;6.13;;
51971;SDS011;37991;49.662;10.060;2022-08-21T06:25:57;9.52;;;5.95;;
51971;SDS011;37991;49.662;10.060;2022-08-21T06:28:22;13.43;;;6.32;;
51971;SDS011;37991;49.662;10.060;2022-08-21T06:30:48;10.25;;;5.90;;
51971;SDS011;37991;49.662;10.060;2022-08-21T06:33:13;12.38;;;6.40;;
51971;SDS011;37991;49.662;10.060;2022-08-21T06:35:38;13.38;;;6.65;;
51971;SDS011;37991;49.662;10.060;2022-08-21T06:38:04;12.40;;;6.72;;
51971;SDS011;37991;49.662;10.060;2022-08-21T06:40:29;10.18;;;6.53;;
51971;SDS011;37991;49.662;10.060;2022-08-21T06:42:58;13.10;;;6.38;;
51971;SDS011;37991;49.662;10.060;2022-08-21T06:45:33;9.30;;;6.00;;
51971;SDS011;37991;49.662;10.060;2022-08-21T06:47:59;12.70;;;6.53;;
51971;SDS011;37991;49.662;10.060;2022-08-21T06:50:24;14.05;;;6.82;;
51971;SDS011;37991;49.662;10.060;2022-08-21T06:52:50;12.20;;;6.50;;
51971;SDS011;37991;49.662;10.060;2022-08-21T06:55:24;11.88;;;6.80;;
51971;SDS011;37991;49.662;10.060;2022-08-21T06:57:49;11.93;;;5.95;;
51971;SDS011;37991;49.662;10.060;2022-08-21T07:00:14;13.38;;;6.40;;
51971;SDS011;37991;49.662;10.060;2022-08-21T07:02:40;10.32;;;5.97;;
51971;SDS011;37991;49.662;10.060;2022-08-21T07:05:06;10.93;;;5.57;;
51971;SDS011;37991;49.662;10.060;2022-08-21T07:07:31;9.95;;;5.75;;
51971;SDS011;37991;49.662;10.060;2022-08-21T07:09:57;10.90;;;6.20;;
51971;SDS011;37991;49.662;10.060;2022-08-21T07:12:22;9.73;;;5.28;;
51971;SDS011;37991;49.662;10.060;2022-08-21T07:14:48;10.35;;;5.70;;
51971;SDS011;37991;49.662;10.060;2022-08-21T07:17:13;10.48;;;5.88;;
51971;SDS011;37991;49.662;10.060;2022-08-21T07:19:39;8.77;;;5.28;;
51971;SDS011;37991;49.662;10.060;2022-08-21T07:22:04;9.25;;;5.47;;
51971;SDS011;37991;49.662;10.060;2022-08-21T07:24:29;8.60;;;5.13;;
51971;SDS011;37991;49.662;10.060;2022-08-21T07:26:55;9.20;;;5.03;;
51971;SDS011;37991;49.662;10.060;2022-08-21T07:29:20;9.73;;;5.38;;
51971;SDS011;37991;49.662;10.060;2022-08-21T07:31:46;9.88;;;5.55;;
51971;SDS011;37991;49.662;10.060;2022-08-21T07:34:11;9.35;;;5.60;;
51971;SDS011;37991;49.662;10.060;2022-08-21T07:36:37;9.43;;;5.05;;
51971;SDS011;37991;49.662;10.060;2022-08-21T07:39:02;7.63;;;4.93;;
51971;SDS011;37991;49.662;10.060;2022-08-21T07:41:28;9.98;;;5.05;;
51971;SDS011;37991;49.662;10.060;2022-08-21T07:43:57;7.68;;;4.78;;
51971;SDS011;37991;49.662;10.060;2022-08-21T07:46:23;8.80;;;5.28;;
51971;SDS011;37991;49.662;10.060;2022-08-21T07:48:49;8.98;;;5.10;;
51971;SDS011;37991;49.662;10.060;2022-08-21T07:51:16;7.45;;;4.63;;
51971;SDS011;37991;49.662;10.060;2022-08-21T07:53:46;7.47;;;4.50;;
51971;SDS011;37991;49.662;10.060;2022-08-21T07:56:13;8.18;;;5.10;;
51971;SDS011;37991;49.662;10.060;2022-08-21T07:58:38;9.55;;;5.10;;
51971;SDS011;37991;49.662;10.060;2022-08-21T08:01:04;9.25;;;4.82;;
51971;SDS011;37991;49.662;10.060;2022-08-21T08:03:31;7.90;;;4.38;;
51971;SDS011;37991;49.662;10.060;2022-08-21T08:05:56;6.25;;;4.40;;
51971;SDS011;37991;49.662;10.060;2022-08-21T08:08:22;6.00;;;4.28;;
51971;SDS011;37991;49.662;10.060;2022-08-21T08:10:48;6.00;;;4.05;;
51971;SDS011;37991;49.662;10.060;2022-08-21T08:13:14;8.13;;;4.22;;
51971;SDS011;37991;49.662;10.060;2022-08-21T08:15:40;5.55;;;4.30;;
51971;SDS011;37991;49.662;10.060;2022-08-21T08:18:05;5.80;;;3.67;;
51971;SDS011;37991;49.662;10.060;2022-08-21T08:20:31;5.40;;;4.03;;
51971;SDS011;37991;49.662;10.060;2022-08-21T08:22:56;4.53;;;3.67;;
51971;SDS011;37991;49.662;10.060;2022-08-21T08:25:22;5.25;;;2.95;;
51971;SDS011;37991;49.662;10.060;2022-08-21T08:27:49;6.03;;;3.50;;
51971;SDS011;37991;49.662;10.060;2022-08-21T08:30:15;4.10;;;2.97;;
51971;SDS011;37991;49.662;10.060;2022-08-21T08:32:43;4.88;;;3.17;;
51971;SDS011;37991;49.662;10.060;2022-08-21T08:35:10;3.88;;;2.30;;
51971;SDS011;37991;49.662;10.060;2022-08-21T08:37:36;4.78;;;3.00;;
51971;SDS011;37991;49.662;10.060;2022-08-21T08:40:05;3.95;;;1.95;;
51971;SDS011;37991;49.662;10.060;2022-08-21T08:42:33;3.22;;;1.95;;
51971;SDS011;37991;49.662;10.060;2022-08-21T08:45:03;2.92;;;2.08;;
51971;SDS011;37991;49.662;10.060;2022-08-21T08:47:32;3.53;;;2.38;;
51971;SDS011;37991;49.662;10.060;2022-08-21T08:52:37;2.80;;;2.20;;
51971;SDS011;37991;49.662;10.060;2022-08-21T08:55:14;1.90;;;1.70;;
51971;SDS011;37991;49.662;10.060;2022-08-21T08:57:44;2.50;;;2.30;;
51971;SDS011;37991;49.662;10.060;2022-08-21T09:00:12;3.80;;;2.78;;
51971;SDS011;37991;49.662;10.060;2022-08-21T09:02:40;4.80;;;2.55;;
51971;SDS011;37991;49.662;10.060;2022-08-21T09:05:07;4.80;;;2.55;;
51971;SDS011;37991;49.662;10.060;2022-08-21T09:07:51;3.28;;;2.63;;
51971;SDS011;37991;49.662;10.060;2022-08-21T09:10:38;4.13;;;2.58;;
51971;SDS011;37991;49.662;10.060;2022-08-21T09:13:18;5.78;;;2.42;;
51971;SDS011;37991;49.662;10.060;2022-08-21T09:18:32;4.05;;;2.13;;
51971;SDS011;37991;49.662;10.060;2022-08-21T09:26:38;3.63;;;2.55;;
51971;SDS011;37991;49.662;10.060;2022-08-21T09:29:13;3.25;;;2.22;;
51971;SDS011;37991;49.662;10.060;2022-08-21T09:31:42;3.33;;;2.45;;
51971;SDS011;37991;49.662;10.060;2022-08-21T09:34:09;2.78;;;2.22;;
51971;SDS011;37991;49.662;10.060;2022-08-21T09:36:40;5.45;;;2.40;;
51971;SDS011;37991;49.662;10.060;2022-08-21T09:39:08;7.25;;;2.42;;
51971;SDS011;37991;49.662;10.060;2022-08-21T09:41:36;3.25;;;2.40;;
51971;SDS011;37991;49.662;10.060;2022-08-21T09:44:03;10.77;;;2.13;;
51971;SDS011;37991;49.662;10.060;2022-08-21T09:46:30;3.42;;;2.17;;
51971;SDS011;37991;49.662;10.060;2022-08-21T09:48:57;3.08;;;2.42;;
51971;SDS011;37991;49.662;10.060;2022-08-21T09:54:14;4.20;;;2.92;;
51971;SDS011;37991;49.662;10.060;2022-08-21T09:56:57;4.07;;;2.13;;
51971;SDS011;37991;49.662;10.060;2022-08-21T09:59:44;4.28;;;2.28;;
51971;SDS011;37991;49.662;10.060;2022-08-21T10:02:53;2.95;;;2.25;;
51971;SDS011;37991;49.662;10.060;2022-08-21T10:05:02;2.55;;;1.85;;
51971;SDS011;37991;49.662;10.060;2022-08-21T10:07:40;3.50;;;1.98;;
51971;SDS011;37991;49.662;10.060;2022-08-21T10:10:08;2.70;;;2.13;;
51971;SDS011;37991;49.662;10.060;2022-08-21T10:20:52;4.15;;;2.28;;
51971;SDS011;37991;49.662;10.060;2022-08-21T10:26:19;3.28;;;2.15;;
51971;SDS011;37991;49.662;10.060;2022-08-21T10:48:05;4.80;;;2.45;;
51971;SDS011;37991;49.662;10.060;2022-08-21T11:01:58;3.75;;;2.33;;
51971;SDS011;37991;49.662;10.060;2022-08-21T11:04:30;2.40;;;1.80;;
51971;SDS011;37991;49.662;10.060;2022-08-21T11:07:05;3.97;;;2.33;;
51971;SDS011;37991;49.662;10.060;2022-08-21T11:09:35;3.22;;;1.92;;
51971;SDS011;37991;49.662;10.060;2022-08-21T11:12:05;2.97;;;1.90;;
51971;SDS011;37991;49.662;10.060;2022-08-21T11:17:11;2.67;;;1.88;;
51971;SDS011;37991;49.662;10.060;2022-08-21T11:19:47;3.47;;;1.80;;
51971;SDS011;37991;49.662;10.060;2022-08-21T11:27:45;4.13;;;1.95;;
51971;SDS011;37991;49.662;10.060;2022-08-21T11:30:16;7.90;;;2.58;;
51971;SDS011;37991;49.662;10.060;2022-08-21T11:41:11;4.47;;;2.40;;
51971;SDS011;37991;49.662;10.060;2022-08-21T11:51:35;5.72;;;2.30;;
51971;SDS011;37991;49.662;10.060;2022-08-21T11:54:13;3.13;;;2.00;;
51971;SDS011;37991;49.662;10.060;2022-08-21T11:57:05;4.57;;;2.08;;
51971;SDS011;37991;49.662;10.060;2022-08-21T12:00:00;4.90;;;2.28;;
51971;SDS011;37991;49.662;10.060;2022-08-21T12:02:38;4.85;;;2.03;;
51971;SDS011;37991;49.662;10.060;2022-08-21T12:05:11;3.22;;;1.95;;
51971;SDS011;37991;49.662;10.060;2022-08-21T12:07:48;3.47;;;1.85;;
51971;SDS011;37991;49.662;10.060;2022-08-21T12:10:31;6.22;;;2.13;;
51971;SDS011;37991;49.662;10.060;2022-08-21T12:13:20;4.43;;;2.15;;
51971;SDS011;37991;49.662;10.060;2022-08-21T12:15:52;17.42;;;2.40;;
51971;SDS011;37991;49.662;10.060;2022-08-21T12:18:28;4.88;;;1.80;;
51971;SDS011;37991;49.662;10.060;2022-08-21T12:23:49;4.25;;;1.83;;
51971;SDS011;37991;49.662;10.060;2022-08-21T12:26:27;2.87;;;1.60;;
51971;SDS011;37991;49.662;10.060;2022-08-21T12:29:16;2.28;;;1.80;;
51971;SDS011;37991;49.662;10.060;2022-08-21T12:32:02;3.70;;;1.88;;
51971;SDS011;37991;49.662;10.060;2022-08-21T12:34:48;3.28;;;2.03;;
51971;SDS011;37991;49.662;10.060;2022-08-21T12:40:53;3.42;;;2.15;;
51971;SDS011;37991;49.662;10.060;2022-08-21T12:43:06;3.25;;;2.10;;
51971;SDS011;37991;49.662;10.060;2022-08-21T12:45:41;4.20;;;2.10;;
51971;SDS011;37991;49.662;10.060;2022-08-21T12:51:06;2.67;;;1.90;;
51971;SDS011;37991;49.662;10.060;2022-08-21T12:53:46;3.60;;;2.25;;
51971;SDS011;37991;49.662;10.060;2022-08-21T12:56:21;2.40;;;1.75;;
51971;SDS011;37991;49.662;10.060;2022-08-21T12:58:54;3.20;;;2.13;;
51971;SDS011;37991;49.662;10.060;2022-08-21T13:03:57;2.67;;;1.98;;
51971;SDS011;37991;49.662;10.060;2022-08-21T13:06:26;4.65;;;1.65;;
51971;SDS011;37991;49.662;10.060;2022-08-21T13:08:57;3.50;;;1.98;;
51971;SDS011;37991;49.662;10.060;2022-08-21T13:11:28;2.85;;;2.10;;
51971;SDS011;37991;49.662;10.060;2022-08-21T13:13:54;4.45;;;2.10;;
51971;SDS011;37991;49.662;10.060;2022-08-21T13:16:24;3.80;;;2.20;;
51971;SDS011;37991;49.662;10.060;2022-08-21T13:19:26;3.13;;;2.10;;
51971;SDS011;37991;49.662;10.060;2022-08-21T13:21:45;3.05;;;2.00;;
51971;SDS011;37991;49.662;10.060;2022-08-21T13:24:21;3.58;;;1.92;;
51971;SDS011;37991;49.662;10.060;2022-08-21T13:26:52;2.78;;;2.03;;
51971;SDS011;37991;49.662;10.060;2022-08-21T13:29:20;4.80;;;2.17;;
51971;SDS011;37991;49.662;10.060;2022-08-21T13:31:49;6.55;;;2.60;;
51971;SDS011;37991;49.662;10.060;2022-08-21T13:34:21;3.38;;;2.13;;
51971;SDS011;37991;49.662;10.060;2022-08-21T13:36:48;3.60;;;2.03;;
51971;SDS011;37991;49.662;10.060;2022-08-21T13:39:18;4.53;;;2.45;;
51971;SDS011;37991;49.662;10.060;2022-08-21T13:41:46;3.92;;;2.45;;
51971;SDS011;37991;49.662;10.060;2022-08-21T13:44:30;3.88;;;2.30;;
51971;SDS011;37991;49.662;10.060;2022-08-21T13:47:00;4.53;;;2.60;;
51971;SDS011;37991;49.662;10.060;2022-08-21T13:49:33;3.05;;;2.20;;
51971;SDS011;37991;49.662;10.060;2022-08-21T13:52:01;4.63;;;2.20;;
51971;SDS011;37991;49.662;10.060;2022-08-21T13:54:28;4.70;;;2.25;;
51971;SDS011;37991;49.662;10.060;2022-08-21T13:57:14;5.15;;;2.63;;
51971;SDS011;37991;49.662;10.060;2022-08-21T13:59:41;3.47;;;2.08;;
51971;SDS011;37991;49.662;10.060;2022-08-21T14:02:13;3.15;;;2.13;;
51971;SDS011;37991;49.662;10.060;2022-08-21T14:04:57;4.40;;;2.38;;
51971;SDS011;37991;49.662;10.060;2022-08-21T14:07:35;4.93;;;2.28;;
51971;SDS011;37991;49.662;10.060;2022-08-21T14:10:11;5.63;;;2.28;;
51971;SDS011;37991;49.662;10.060;2022-08-21T14:12:47;5.70;;;2.10;;
51971;SDS011;37991;49.662;10.060;2022-08-21T14:15:23;3.22;;;2.30;;
51971;SDS011;37991;49.662;10.060;2022-08-21T14:17:53;3.97;;;2.00;;
51971;SDS011;37991;49.662;10.060;2022-08-21T14:20:33;4.15;;;2.20;;
51971;SDS011;37991;49.662;10.060;2022-08-21T14:23:00;3.35;;;2.17;;
51971;SDS011;37991;49.662;10.060;2022-08-21T14:30:28;4.57;;;2.17;;
51971;SDS011;37991;49.662;10.060;2022-08-21T14:32:54;4.65;;;2.15;;
51971;SDS011;37991;49.662;10.060;2022-08-21T14:35:20;3.63;;;2.30;;
51971;SDS011;37991;49.662;10.060;2022-08-21T14:37:46;3.70;;;2.38;;
51971;SDS011;37991;49.662;10.060;2022-08-21T14:40:15;4.55;;;2.10;;
51971;SDS011;37991;49.662;10.060;2022-08-21T14:42:42;4.00;;;2.00;;
51971;SDS011;37991;49.662;10.060;2022-08-21T14:45:15;3.63;;;2.20;;
51971;SDS011;37991;49.662;10.060;2022-08-21T14:47:43;4.03;;;1.92;;
51971;SDS011;37991;49.662;10.060;2022-08-21T14:50:09;3.92;;;2.22;;
51971;SDS011;37991;49.662;10.060;2022-08-21T14:52:35;2.88;;;1.83;;
51971;SDS011;37991;49.662;10.060;2022-08-21T14:55:02;3.83;;;2.03;;
51971;SDS011;37991;49.662;10.060;2022-08-21T14:57:29;4.32;;;2.03;;
51971;SDS011;37991;49.662;10.060;2022-08-21T14:59:56;5.60;;;2.38;;
51971;SDS011;37991;49.662;10.060;2022-08-21T15:02:21;3.55;;;2.25;;
51971;SDS011;37991;49.662;10.060;2022-08-21T15:04:46;3.25;;;2.03;;
51971;SDS011;37991;49.662;10.060;2022-08-21T15:07:12;4.80;;;2.38;;
51971;SDS011;37991;49.662;10.060;2022-08-21T15:09:37;4.15;;;2.30;;
51971;SDS011;37991;49.662;10.060;2022-08-21T15:12:03;4.95;;;2.00;;
51971;SDS011;37991;49.662;10.060;2022-08-21T15:14:30;3.03;;;2.10;;
51971;SDS011;37991;49.662;10.060;2022-08-21T15:16:59;2.33;;;2.00;;
51971;SDS011;37991;49.662;10.060;2022-08-21T15:19:25;5.72;;;2.20;;
51971;SDS011;37991;49.662;10.060;2022-08-21T15:21:51;2.15;;;1.77;;
51971;SDS011;37991;49.662;10.060;2022-08-21T15:24:16;3.75;;;1.95;;
51971;SDS011;37991;49.662;10.060;2022-08-21T15:26:41;4.30;;;1.95;;
51971;SDS011;37991;49.662;10.060;2022-08-21T15:29:08;3.50;;;1.90;;
51971;SDS011;37991;49.662;10.060;2022-08-21T15:31:34;3.08;;;2.05;;
51971;SDS011;37991;49.662;10.060;2022-08-21T15:34:00;4.13;;;2.30;;
51971;SDS011;37991;49.662;10.060;2022-08-21T15:36:25;3.88;;;2.08;;
51971;SDS011;37991;49.662;10.060;2022-08-21T15:38:51;2.72;;;1.90;;
51971;SDS011;37991;49.662;10.060;2022-08-21T15:41:16;4.47;;;2.15;;
51971;SDS011;37991;49.662;10.060;2022-08-21T15:43:47;3.55;;;2.03;;
51971;SDS011;37991;49.662;10.060;2022-08-21T15:46:16;5.15;;;1.92;;
51971;SDS011;37991;49.662;10.060;2022-08-21T15:48:43;3.80;;;2.47;;
51971;SDS011;37991;49.662;10.060;2022-08-21T15:51:11;9.07;;;2.17;;
51971;SDS011;37991;49.662;10.060;2022-08-21T15:53:37;3.47;;;1.95;;
51971;SDS011;37991;49.662;10.060;2022-08-21T15:56:03;4.60;;;2.25;;
51971;SDS011;37991;49.662;10.060;2022-08-21T15:58:31;4.43;;;2.00;;
51971;SDS011;37991;49.662;10.060;2022-08-21T16:01:00;10.55;;;2.40;;
51971;SDS011;37991;49.662;10.060;2022-08-21T16:03:26;4.22;;;2.38;;
51971;SDS011;37991;49.662;10.060;2022-08-21T16:05:52;3.20;;;2.28;;
51971;SDS011;37991;49.662;10.060;2022-08-21T16:08:20;6.93;;;2.05;;
51971;SDS011;37991;49.662;10.060;2022-08-21T16:10:46;5.03;;;2.90;;
51971;SDS011;37991;49.662;10.060;2022-08-21T16:13:16;7.07;;;3.65;;
51971;SDS011;37991;49.662;10.060;2022-08-21T16:15:47;6.22;;;3.35;;
51971;SDS011;37991;49.662;10.060;2022-08-21T16:18:13;8.18;;;4.45;;